createdAt,value
2023-03-01T00:01:43.658Z,43.63
2023-03-01T00:04:11.454Z,43.80
2023-03-01T00:06:39.323Z,43.70
2023-03-01T00:09:07.358Z,43.80
2023-03-01T00:11:35.654Z,44.13
2023-03-01T00:14:07.530Z,43.77
2023-03-01T00:16:39.541Z,43.97
2023-03-01T00:19:09.101Z,44.03
2023-03-01T00:21:36.942Z,43.93
2023-03-01T00:24:05.108Z,43.87
2023-03-01T00:26:33.247Z,44.00
2023-03-01T00:29:01.830Z,43.80
2023-03-01T00:31:33.353Z,44.00
2023-03-01T00:34:02.895Z,43.73
2023-03-01T00:36:33.330Z,43.90
2023-03-01T00:39:01.559Z,43.57
2023-03-01T00:41:29.523Z,43.73
2023-03-01T00:43:57.964Z,43.80
2023-03-01T00:46:27.927Z,43.40
2023-03-01T00:48:57.163Z,43.77
2023-03-01T00:51:27.209Z,43.80
2023-03-01T00:53:57.514Z,43.53
2023-03-01T00:56:25.828Z,43.60
2023-03-01T00:58:53.706Z,43.73
2023-03-01T01:01:23.699Z,43.80
2023-03-01T01:03:54.522Z,43.67
2023-03-01T01:06:25.628Z,43.67
2023-03-01T01:08:55.451Z,43.60
2023-03-01T01:11:24.870Z,43.50
2023-03-01T01:13:54.807Z,43.60
2023-03-01T01:16:25.052Z,43.70
2023-03-01T01:18:53.431Z,43.50
2023-03-01T01:21:24.738Z,43.40
2023-03-01T01:23:53.943Z,43.63
2023-03-01T01:26:24.127Z,43.60
2023-03-01T01:28:52.510Z,43.60
2023-03-01T01:31:21.195Z,43.60
2023-03-01T01:33:49.070Z,43.50
2023-03-01T01:36:16.894Z,43.47
2023-03-01T01:38:46.272Z,43.67
2023-03-01T01:41:15.486Z,43.60
2023-03-01T01:43:45.570Z,43.60
2023-03-01T01:46:30.558Z,43.70
2023-03-01T01:49:03.416Z,43.80
2023-03-01T01:51:39.862Z,43.50
2023-03-01T01:54:14.315Z,43.63
2023-03-01T01:56:44.682Z,43.60
2023-03-01T01:59:13.916Z,43.40
2023-03-01T02:01:41.748Z,43.23
2023-03-01T02:04:09.597Z,43.50
2023-03-01T02:06:41.463Z,43.90
2023-03-01T02:09:15.738Z,43.63
2023-03-01T02:11:44.608Z,43.53
2023-03-01T02:14:12.846Z,43.53
2023-03-01T02:16:40.838Z,43.53
2023-03-01T02:19:10.818Z,43.47
2023-03-01T02:21:45.262Z,43.63
2023-03-01T02:24:25.601Z,43.53
2023-03-01T02:26:58.132Z,43.33
2023-03-01T02:29:30.030Z,43.40
2023-03-01T02:32:00.552Z,43.30
2023-03-01T02:34:30.047Z,43.50
2023-03-01T02:37:02.195Z,43.67
2023-03-01T02:39:33.659Z,43.57
2023-03-01T02:42:03.230Z,43.53
2023-03-01T02:44:32.486Z,43.20
2023-03-01T02:47:04.565Z,43.60
2023-03-01T02:49:35.446Z,43.37
2023-03-01T02:52:29.222Z,43.47
2023-03-01T02:55:02.507Z,43.30
2023-03-01T02:57:32.492Z,43.27
2023-03-01T03:00:08.716Z,43.20
2023-03-01T03:02:38.127Z,43.57
2023-03-01T03:05:19.756Z,43.23
2023-03-01T03:07:49.761Z,43.43
2023-03-01T03:10:21.101Z,43.50
2023-03-01T03:12:52.064Z,43.23
2023-03-01T03:15:22.445Z,43.20
2023-03-01T03:17:50.940Z,43.43
2023-03-01T03:20:20.692Z,43.40
2023-03-01T03:22:49.574Z,43.40
2023-03-01T03:25:18.101Z,43.27
2023-03-01T03:27:48.008Z,43.50
2023-03-01T03:30:17.787Z,43.10
2023-03-01T03:32:53.040Z,43.37
2023-03-01T03:35:22.018Z,43.47
2023-03-01T03:38:06.667Z,43.30
2023-03-01T03:40:36.369Z,43.50
2023-03-01T03:43:05.168Z,43.23
2023-03-01T03:45:34.280Z,43.40
2023-03-01T03:48:05.221Z,43.40
2023-03-01T03:50:33.391Z,43.60
2023-03-01T03:53:03.646Z,43.50
2023-03-01T03:55:31.725Z,43.47
2023-03-01T03:58:03.049Z,43.60
2023-03-01T04:00:31.090Z,43.17
2023-03-01T04:02:58.884Z,43.43
2023-03-01T04:05:28.511Z,43.27
2023-03-01T04:08:03.195Z,43.53
2023-03-01T04:10:32.874Z,43.57
2023-03-01T04:13:00.904Z,43.67
2023-03-01T04:15:29.606Z,43.73
2023-03-01T04:17:57.739Z,43.77
2023-03-01T04:20:29.236Z,44.13
2023-03-01T04:23:01.002Z,43.90
2023-03-01T04:25:28.800Z,44.00
2023-03-01T04:27:59.297Z,43.90
2023-03-01T04:30:27.070Z,44.00
2023-03-01T04:32:54.839Z,44.20
2023-03-01T04:35:22.728Z,44.10
2023-03-01T04:37:51.928Z,44.13
2023-03-01T04:40:19.866Z,44.30
2023-03-01T04:42:48.149Z,44.07
2023-03-01T04:45:16.035Z,43.83
2023-03-01T04:47:45.302Z,44.30
2023-03-01T04:50:15.511Z,44.03
2023-03-01T04:52:43.667Z,43.90
2023-03-01T04:55:13.379Z,44.07
2023-03-01T04:57:41.531Z,43.77
2023-03-01T05:00:21.702Z,44.03
2023-03-01T05:02:54.139Z,44.00
2023-03-01T05:05:28.756Z,43.87
2023-03-01T05:07:58.721Z,44.13
2023-03-01T05:10:30.973Z,43.90
2023-03-01T05:12:59.205Z,44.03
2023-03-01T05:15:27.693Z,44.30
2023-03-01T05:17:56.689Z,44.00
2023-03-01T05:20:24.794Z,43.87
2023-03-01T05:22:52.990Z,44.00
2023-03-01T05:25:22.237Z,44.00
2023-03-01T05:27:51.437Z,43.97
2023-03-01T05:30:19.686Z,43.93
2023-03-01T05:32:49.564Z,44.30
2023-03-01T05:35:19.995Z,44.00
2023-03-01T05:37:50.126Z,44.07
2023-03-01T05:40:20.398Z,43.90
2023-03-01T05:42:49.970Z,44.20
2023-03-01T05:45:19.835Z,44.17
2023-03-01T05:47:49.263Z,44.37
2023-03-01T05:50:20.971Z,44.27
2023-03-01T05:52:50.253Z,44.13
2023-03-01T05:55:19.360Z,44.40
2023-03-01T05:57:47.343Z,44.30
2023-03-01T06:00:16.885Z,44.37
2023-03-01T06:02:46.472Z,44.10
2023-03-01T06:05:15.325Z,44.10
2023-03-01T06:07:43.939Z,44.13
2023-03-01T06:10:13.561Z,44.00
2023-03-01T06:12:42.992Z,44.20
2023-03-01T06:15:12.592Z,44.17
2023-03-01T06:17:41.481Z,44.20
2023-03-01T06:20:14.258Z,44.30
2023-03-01T06:22:42.897Z,44.20
2023-03-01T06:25:11.860Z,44.33
2023-03-01T06:27:39.728Z,44.10
2023-03-01T06:30:08.974Z,44.10
2023-03-01T06:32:37.230Z,44.13
2023-03-01T06:35:05.741Z,44.07
2023-03-01T06:37:36.146Z,43.77
2023-03-01T06:40:08.977Z,43.93
2023-03-01T06:42:36.874Z,43.93
2023-03-01T06:45:06.275Z,43.93
2023-03-01T06:47:34.211Z,44.33
2023-03-01T06:50:02.221Z,43.87
2023-03-01T06:52:30.316Z,44.10
2023-03-01T06:54:59.567Z,44.00
2023-03-01T06:57:27.382Z,43.97
2023-03-01T06:59:55.188Z,43.90
2023-03-01T07:02:23.065Z,43.77
2023-03-01T07:04:51.372Z,43.63
2023-03-01T07:07:19.857Z,43.17
2023-03-01T07:09:47.926Z,42.93
2023-03-01T07:12:17.449Z,42.90
2023-03-01T07:14:46.333Z,42.60
2023-03-01T07:17:14.140Z,42.67
2023-03-01T07:19:41.985Z,42.60
2023-03-01T07:22:10.280Z,42.40
2023-03-01T07:24:38.188Z,42.27
2023-03-01T07:27:06.083Z,42.33
2023-03-01T07:29:37.319Z,42.30
2023-03-01T07:32:05.764Z,42.20
2023-03-01T07:34:34.406Z,42.60
2023-03-01T07:37:02.181Z,42.30
2023-03-01T07:39:30.060Z,42.30
2023-03-01T07:41:57.915Z,42.63
2023-03-01T07:44:25.902Z,42.30
2023-03-01T07:46:57.178Z,42.40
2023-03-01T07:49:25.144Z,42.40
2023-03-01T07:51:52.935Z,42.50
2023-03-01T07:54:20.821Z,42.63
2023-03-01T07:56:48.605Z,43.20
2023-03-01T07:59:16.414Z,43.30
2023-03-01T08:01:44.363Z,43.43
2023-03-01T08:04:13.523Z,43.57
2023-03-01T08:06:41.344Z,44.00
2023-03-01T08:09:09.455Z,44.00
2023-03-01T08:11:37.358Z,43.77
2023-03-01T08:14:05.212Z,44.10
2023-03-01T08:16:34.387Z,44.17
2023-03-01T08:19:06.061Z,44.23
2023-03-01T08:21:36.308Z,44.40
2023-03-01T08:24:04.328Z,44.47
2023-03-01T08:26:32.695Z,44.40
2023-03-01T08:29:01.683Z,44.80
2023-03-01T08:31:31.907Z,44.70
2023-03-01T08:34:02.230Z,44.90
2023-03-01T08:36:31.944Z,44.87
2023-03-01T08:39:01.469Z,44.70
2023-03-01T08:41:29.441Z,44.93
2023-03-01T08:43:59.867Z,44.77
2023-03-01T08:46:28.550Z,44.80
2023-03-01T08:48:56.696Z,45.10
2023-03-01T08:51:25.590Z,45.17
2023-03-01T08:53:53.663Z,45.03
2023-03-01T08:56:22.809Z,45.27
2023-03-01T08:58:50.885Z,45.40
2023-03-01T09:01:20.941Z,45.30
2023-03-01T09:03:48.844Z,45.43
2023-03-01T09:06:17.481Z,44.97
2023-03-01T09:08:47.717Z,45.27
2023-03-01T09:11:18.948Z,45.43
2023-03-01T09:13:49.568Z,45.00
2023-03-01T09:16:19.441Z,45.20
2023-03-01T09:18:50.375Z,45.33
2023-03-01T09:21:24.864Z,45.37
2023-03-01T09:23:59.708Z,45.00
2023-03-01T09:26:27.573Z,44.93
2023-03-01T09:28:57.863Z,45.07
2023-03-01T09:31:26.367Z,44.87
2023-03-01T09:33:55.389Z,45.50
2023-03-01T09:36:26.183Z,45.30
2023-03-01T09:38:55.494Z,45.27
2023-03-01T09:41:42.817Z,45.37
2023-03-01T09:44:22.738Z,45.27
2023-03-01T09:46:50.808Z,45.63
2023-03-01T09:49:21.691Z,45.73
2023-03-01T09:51:58.338Z,45.70
2023-03-01T09:54:26.233Z,45.37
2023-03-01T09:57:07.138Z,45.53
2023-03-01T09:59:51.966Z,45.50
2023-03-01T10:02:34.973Z,45.47
2023-03-01T10:05:15.830Z,46.07
2023-03-01T10:07:54.407Z,45.40
2023-03-01T10:10:29.768Z,45.40
2023-03-01T10:12:58.689Z,45.50
2023-03-01T10:15:36.614Z,45.53
2023-03-01T10:18:11.612Z,45.20
2023-03-01T10:20:48.384Z,45.33
2023-03-01T10:23:16.167Z,45.40
2023-03-01T10:25:58.815Z,45.07
2023-03-01T10:28:31.716Z,45.20
2023-03-01T10:31:01.839Z,44.97
2023-03-01T10:33:32.861Z,45.07
2023-03-01T10:36:00.713Z,44.97
2023-03-01T10:38:32.288Z,45.13
2023-03-01T10:41:02.081Z,45.27
2023-03-01T10:43:44.649Z,45.47
2023-03-01T10:46:27.049Z,45.37
2023-03-01T10:49:17.009Z,45.00
2023-03-01T10:51:47.079Z,45.03
2023-03-01T10:54:20.578Z,44.97
2023-03-01T10:56:50.534Z,44.87
2023-03-01T10:59:30.170Z,45.00
2023-03-01T11:02:24.874Z,45.07
2023-03-01T11:05:01.990Z,45.10
2023-03-01T11:07:30.531Z,45.30
2023-03-01T11:09:58.347Z,45.40
2023-03-01T11:12:29.743Z,45.27
2023-03-01T11:14:57.863Z,45.10
2023-03-01T11:17:31.638Z,45.47
2023-03-01T11:20:08.493Z,45.03
2023-03-01T11:22:37.983Z,45.40
2023-03-01T11:25:10.697Z,45.37
2023-03-01T11:27:43.785Z,45.30
2023-03-01T11:30:20.120Z,45.20
2023-03-01T11:33:01.701Z,45.13
2023-03-01T11:35:34.028Z,45.17
2023-03-01T11:38:11.552Z,44.93
2023-03-01T11:40:43.628Z,44.77
2023-03-01T11:43:20.087Z,45.27
2023-03-01T11:46:11.213Z,45.20
2023-03-01T11:48:55.326Z,44.97
2023-03-01T11:51:35.021Z,45.07
2023-03-01T11:54:11.744Z,44.80
2023-03-01T11:56:43.701Z,44.70
2023-03-01T11:59:40.178Z,44.83
2023-03-01T12:02:34.430Z,44.70
2023-03-01T12:05:26.506Z,44.67
2023-03-01T12:08:02.005Z,44.80
2023-03-01T12:10:35.134Z,44.57
2023-03-01T12:13:23.107Z,44.60
2023-03-01T12:16:07.368Z,44.67
2023-03-01T12:18:51.104Z,44.57
2023-03-01T12:21:30.726Z,44.40
2023-03-01T12:24:23.655Z,44.00
2023-03-01T12:27:03.437Z,44.40
2023-03-01T12:29:36.434Z,44.43
2023-03-01T12:32:24.580Z,44.70
2023-03-01T12:35:13.514Z,44.53
2023-03-01T12:37:53.104Z,44.50
2023-03-01T12:40:48.835Z,44.73
2023-03-01T12:43:28.823Z,44.50
2023-03-01T12:46:11.145Z,44.60
2023-03-01T12:48:48.959Z,44.50
2023-03-01T12:51:20.560Z,44.50
2023-03-01T12:53:51.742Z,44.53
2023-03-01T12:56:22.996Z,44.70
2023-03-01T12:59:00.252Z,44.50
2023-03-01T13:01:36.987Z,44.57
2023-03-01T13:04:20.433Z,44.57
2023-03-01T13:07:06.634Z,44.53
2023-03-01T13:09:44.414Z,44.60
2023-03-01T13:12:46.633Z,44.60
2023-03-01T13:15:31.331Z,44.27
2023-03-01T13:18:00.762Z,44.40
2023-03-01T13:20:33.627Z,44.50
2023-03-01T13:23:09.088Z,44.57
2023-03-01T13:26:06.064Z,44.37
2023-03-01T13:28:58.808Z,44.60
2023-03-01T13:32:04.501Z,44.23
2023-03-01T13:34:52.487Z,44.40
2023-03-01T13:37:23.962Z,44.30
2023-03-01T13:39:52.298Z,44.20
2023-03-01T13:42:41.745Z,44.23
2023-03-01T13:45:23.109Z,44.10
2023-03-01T13:47:59.005Z,44.20
2023-03-01T13:50:30.029Z,44.07
2023-03-01T13:53:01.201Z,44.20
2023-03-01T13:55:38.407Z,44.23
2023-03-01T13:58:20.539Z,44.23
2023-03-01T14:00:48.672Z,44.10
2023-03-01T14:03:19.086Z,44.40
2023-03-01T14:06:13.680Z,44.30
2023-03-01T14:08:43.434Z,44.60
2023-03-01T14:11:47.524Z,44.30
2023-03-01T14:14:31.572Z,44.47
2023-03-01T14:17:14.675Z,44.60
2023-03-01T14:19:45.804Z,44.60
2023-03-01T14:22:25.971Z,44.60
2023-03-01T14:24:57.028Z,44.47
2023-03-01T14:27:27.665Z,44.47
2023-03-01T14:30:02.005Z,44.37
2023-03-01T14:32:32.320Z,44.30
2023-03-01T14:35:01.762Z,44.40
2023-03-01T14:37:32.116Z,44.20
2023-03-01T14:40:01.250Z,44.43
2023-03-01T14:42:32.609Z,44.50
2023-03-01T14:45:03.898Z,44.30
2023-03-01T14:47:33.840Z,44.37
2023-03-01T14:50:04.346Z,44.43
2023-03-01T14:52:38.599Z,44.43
2023-03-01T14:55:08.972Z,44.60
2023-03-01T14:57:37.373Z,44.23
2023-03-01T15:00:09.304Z,44.30
2023-03-01T15:02:37.813Z,44.13
2023-03-01T15:05:08.943Z,44.47
2023-03-01T15:07:41.321Z,44.40
2023-03-01T15:10:19.096Z,44.20
2023-03-01T15:12:46.903Z,44.20
2023-03-01T15:15:42.810Z,44.37
2023-03-01T15:18:19.397Z,44.03
2023-03-01T15:20:48.683Z,44.40
2023-03-01T15:23:23.961Z,44.40
2023-03-01T15:25:57.291Z,44.30
2023-03-01T15:28:28.327Z,44.40
2023-03-01T15:31:03.960Z,44.60
2023-03-01T15:33:39.513Z,44.47
2023-03-01T15:36:32.690Z,44.07
2023-03-01T15:39:01.662Z,44.10
2023-03-01T15:41:32.828Z,44.43
2023-03-01T15:44:02.137Z,44.20
2023-03-01T15:46:35.286Z,44.40
2023-03-01T15:49:06.206Z,44.40
2023-03-01T15:51:36.273Z,44.10
2023-03-01T15:54:07.954Z,44.20
2023-03-01T15:56:36.406Z,44.30
2023-03-01T15:59:05.583Z,44.30
2023-03-01T16:01:35.688Z,44.30
2023-03-01T16:04:03.677Z,44.07
2023-03-01T16:06:31.903Z,44.23
2023-03-01T16:08:59.860Z,44.30
2023-03-01T16:11:27.683Z,44.40
2023-03-01T16:13:55.697Z,44.53
2023-03-01T16:16:23.738Z,44.27
2023-03-01T16:18:55.383Z,44.23
2023-03-01T16:21:25.185Z,44.13
2023-03-01T16:23:56.355Z,44.23
2023-03-01T16:26:24.210Z,44.23
2023-03-01T16:28:52.264Z,44.47
2023-03-01T16:31:21.351Z,44.13
2023-03-01T16:33:52.186Z,44.47
2023-03-01T16:36:24.350Z,44.40
2023-03-01T16:38:53.370Z,44.37
2023-03-01T16:41:23.609Z,44.30
2023-03-01T16:43:51.876Z,44.10
2023-03-01T16:46:21.578Z,44.30
2023-03-01T16:48:50.524Z,44.00
2023-03-01T16:51:18.448Z,43.93
2023-03-01T16:53:48.018Z,44.30
2023-03-01T16:56:16.502Z,44.50
2023-03-01T16:58:44.393Z,44.57
2023-03-01T17:01:14.161Z,45.37
2023-03-01T17:03:42.298Z,45.63
2023-03-01T17:06:12.231Z,45.80
2023-03-01T17:08:40.928Z,46.10
2023-03-01T17:11:11.957Z,46.10
2023-03-01T17:13:40.444Z,46.07
2023-03-01T17:16:10.896Z,46.70
2023-03-01T17:18:39.338Z,46.63
2023-03-01T17:21:08.439Z,46.37
2023-03-01T17:23:38.450Z,46.53
2023-03-01T17:26:06.791Z,46.87
2023-03-01T17:28:37.656Z,46.73
2023-03-01T17:31:07.389Z,46.73
2023-03-01T17:33:35.226Z,46.50
2023-03-01T17:36:03.042Z,46.77
2023-03-01T17:38:30.872Z,46.97
2023-03-01T17:41:00.762Z,46.70
2023-03-01T17:43:28.912Z,46.77
2023-03-01T17:45:58.893Z,46.67
2023-03-01T17:48:27.929Z,46.50
2023-03-01T17:50:55.819Z,46.70
2023-03-01T17:53:23.853Z,46.77
2023-03-01T17:55:59.618Z,46.70
2023-03-01T17:58:27.406Z,46.90
2023-03-01T18:00:55.250Z,46.93
2023-03-01T18:03:24.413Z,47.10
2023-03-01T18:05:52.276Z,47.03
2023-03-01T18:08:20.070Z,46.93
2023-03-01T18:10:47.847Z,46.50
2023-03-01T18:13:15.649Z,45.93
2023-03-01T18:15:43.399Z,45.30
2023-03-01T18:18:11.279Z,44.80
2023-03-01T18:20:40.530Z,44.60
2023-03-01T18:23:08.337Z,44.30
2023-03-01T18:25:39.814Z,44.20
2023-03-01T18:28:07.593Z,43.97
2023-03-01T18:30:36.559Z,44.10
2023-03-01T18:33:04.434Z,43.57
2023-03-01T18:35:32.405Z,43.70
2023-03-01T18:38:01.561Z,43.60
2023-03-01T18:40:31.828Z,43.40
2023-03-01T18:42:59.651Z,43.80
2023-03-01T18:45:27.446Z,43.50
2023-03-01T18:47:55.229Z,43.43
2023-03-01T18:50:22.999Z,43.80
2023-03-01T18:52:51.076Z,43.80
2023-03-01T18:55:20.221Z,43.50
2023-03-01T18:57:48.818Z,43.50
2023-03-01T19:00:18.551Z,43.47
2023-03-01T19:02:47.357Z,43.40
2023-03-01T19:05:16.529Z,43.47
2023-03-01T19:07:45.136Z,43.50
2023-03-01T19:10:13.163Z,44.03
2023-03-01T19:12:42.397Z,45.00
2023-03-01T19:15:10.782Z,45.20
2023-03-01T19:17:38.703Z,45.67
2023-03-01T19:20:07.994Z,45.77
2023-03-01T19:22:35.844Z,46.30
2023-03-01T19:25:03.757Z,46.47
2023-03-01T19:27:31.585Z,46.33
2023-03-01T19:30:00.713Z,46.83
2023-03-01T19:32:28.645Z,47.00
2023-03-01T19:34:56.497Z,46.63
2023-03-01T19:37:24.694Z,46.77
2023-03-01T19:39:52.473Z,46.60
2023-03-01T19:42:20.338Z,46.90
2023-03-01T19:44:48.112Z,46.97
2023-03-01T19:47:19.106Z,46.93
2023-03-01T19:49:46.949Z,46.77
2023-03-01T19:52:14.714Z,47.20
2023-03-01T19:54:42.483Z,47.17
2023-03-01T19:57:10.387Z,47.23
2023-03-01T19:59:38.369Z,46.80
2023-03-01T20:02:06.214Z,46.67
2023-03-01T20:04:35.378Z,46.60
2023-03-01T20:07:03.204Z,46.97
2023-03-01T20:09:31.032Z,47.33
2023-03-01T20:11:58.918Z,47.17
2023-03-01T20:14:26.713Z,47.07
2023-03-01T20:16:54.483Z,47.23
2023-03-01T20:19:22.369Z,46.97
2023-03-01T20:21:51.511Z,47.10
2023-03-01T20:24:19.358Z,47.10
2023-03-01T20:26:47.224Z,46.93
2023-03-01T20:29:15.132Z,46.73
2023-03-01T20:31:43.028Z,46.97
2023-03-01T20:34:11.188Z,47.07
2023-03-01T20:36:40.833Z,47.07
2023-03-01T20:39:11.620Z,47.20
2023-03-01T20:41:39.736Z,46.97
2023-03-01T20:44:07.533Z,47.03
2023-03-01T20:46:37.192Z,46.90
2023-03-01T20:49:06.354Z,46.90
2023-03-01T20:51:34.216Z,47.07
2023-03-01T20:54:02.019Z,47.13
2023-03-01T20:56:31.934Z,46.93
2023-03-01T20:59:04.197Z,47.10
2023-03-01T21:01:32.418Z,46.97
2023-03-01T21:04:00.341Z,46.73
2023-03-01T21:06:28.218Z,47.20
2023-03-01T21:08:56.834Z,46.83
2023-03-01T21:11:25.856Z,47.10
2023-03-01T21:13:55.421Z,46.97
2023-03-01T21:16:23.470Z,46.83
2023-03-01T21:18:51.547Z,47.10
2023-03-01T21:21:21.279Z,47.03
2023-03-01T21:23:49.070Z,46.77
2023-03-01T21:26:19.733Z,46.77
2023-03-01T21:28:49.983Z,46.80
2023-03-01T21:31:21.971Z,46.70
2023-03-01T21:33:52.280Z,46.90
2023-03-01T21:36:21.339Z,46.53
2023-03-01T21:38:50.928Z,46.97
2023-03-01T21:41:20.905Z,46.67
2023-03-01T21:43:49.928Z,46.83
2023-03-01T21:46:21.254Z,46.80
2023-03-01T21:48:51.076Z,46.77
2023-03-01T21:51:21.017Z,46.67
2023-03-01T21:53:50.456Z,46.87
2023-03-01T21:56:19.599Z,46.93
2023-03-01T21:58:47.416Z,46.80
2023-03-01T22:01:17.881Z,46.73
2023-03-01T22:03:47.227Z,47.07
2023-03-01T22:06:19.492Z,46.90
2023-03-01T22:08:49.013Z,46.77
2023-03-01T22:11:18.927Z,46.80
2023-03-01T22:13:49.157Z,46.83
2023-03-01T22:16:17.032Z,47.10
2023-03-01T22:18:44.824Z,46.73
2023-03-01T22:21:15.364Z,47.03
2023-03-01T22:23:44.268Z,47.20
2023-03-01T22:26:23.523Z,46.53
2023-03-01T22:28:51.831Z,46.60
2023-03-01T22:31:19.726Z,46.80
2023-03-01T22:33:47.532Z,46.83
2023-03-01T22:36:16.761Z,46.90
2023-03-01T22:38:44.523Z,46.80
2023-03-01T22:41:12.547Z,46.67
2023-03-01T22:43:40.376Z,46.70
2023-03-01T22:46:13.277Z,46.57
2023-03-01T22:48:41.590Z,46.83
2023-03-01T22:51:14.172Z,46.87
2023-03-01T22:53:43.416Z,46.73
2023-03-01T22:56:16.083Z,46.97
2023-03-01T22:58:44.389Z,46.80
2023-03-01T23:01:13.688Z,46.90
2023-03-01T23:03:41.656Z,46.87
2023-03-01T23:06:10.324Z,46.43
2023-03-01T23:08:38.469Z,47.00
2023-03-01T23:11:11.869Z,46.60
2023-03-01T23:13:40.298Z,46.70
2023-03-01T23:16:08.673Z,46.83
2023-03-01T23:18:36.534Z,46.67
2023-03-01T23:21:09.403Z,46.80
2023-03-01T23:23:37.236Z,46.80
2023-03-01T23:26:07.309Z,46.40
2023-03-01T23:28:36.620Z,46.93
2023-03-01T23:31:06.669Z,46.90
2023-03-01T23:33:37.758Z,46.77
2023-03-01T23:36:06.866Z,46.77
2023-03-01T23:38:34.838Z,46.80
2023-03-01T23:41:02.660Z,46.87
2023-03-01T23:43:33.081Z,47.00
2023-03-01T23:46:00.919Z,46.77
2023-03-01T23:48:28.863Z,46.80
2023-03-01T23:50:56.649Z,47.00
2023-03-01T23:53:24.422Z,46.70
2023-03-01T23:55:54.843Z,47.03
2023-03-01T23:58:28.213Z,46.97
